Time;durP1;ratioP1;P1;durP2;ratioP2;P2;SDS_P1;SDS_P2;PMS_P1;PMS_P2;Temp;Humidity;BMP_temperature;BMP_pressure;BME280_temperature;BME280_humidity;BME280_pressure;Samples;Min_cycle;Max_cycle;Signal;HPM_P1;HPM_P2
2024/01/27 00:01:33;;;;;;;16.52;3.42;;;3.30;99.90;;;;;;5074079;28;20494;-57
2024/01/27 00:03:59;;;;;;;17.33;3.83;;;3.20;99.90;;;;;;5073659;28;20065;-57
2024/01/27 00:06:25;;;;;;;19.00;3.42;;;3.20;99.90;;;;;;5073757;28;20620;-55
2024/01/27 00:08:50;;;;;;;16.23;3.13;;;2.70;99.90;;;;;;5073582;28;20039;-55
2024/01/27 00:11:16;;;;;;;26.02;4.68;;;2.50;99.90;;;;;;5072988;28;20112;-54
2024/01/27 00:13:42;;;;;;;15.73;3.20;;;2.70;99.90;;;;;;5073362;28;20037;-56
2024/01/27 00:16:09;;;;;;;17.08;3.85;;;2.50;99.90;;;;;;5073478;28;20036;-56
2024/01/27 00:18:38;;;;;;;18.13;3.83;;;3.00;99.90;;;;;;5073107;28;20044;-55
2024/01/27 00:21:05;;;;;;;24.92;3.72;;;2.40;99.90;;;;;;5073730;28;20060;-55
2024/01/27 00:23:32;;;;;;;22.15;3.95;;;3.00;99.90;;;;;;5073257;28;20146;-54
2024/01/27 00:25:58;;;;;;;21.83;3.58;;;2.40;99.90;;;;;;5073579;28;20392;-55
2024/01/27 00:28:24;;;;;;;23.13;3.85;;;3.00;99.90;;;;;;5073275;28;20040;-55
2024/01/27 00:30:49;;;;;;;16.10;3.10;;;2.50;99.90;;;;;;5073081;28;20052;-55
2024/01/27 00:33:15;;;;;;;17.05;3.30;;;3.00;99.90;;;;;;5073229;28;20059;-55
2024/01/27 00:35:41;;;;;;;24.00;3.88;;;2.30;99.90;;;;;;5073216;28;20029;-58
2024/01/27 00:38:07;;;;;;;22.90;4.80;;;2.40;99.90;;;;;;5072673;28;20044;-55
2024/01/27 00:40:33;;;;;;;20.30;3.63;;;2.90;99.90;;;;;;5069330;28;20065;-55
2024/01/27 00:42:58;;;;;;;14.98;2.88;;;2.60;99.90;;;;;;5072311;28;20081;-54
2024/01/27 00:45:26;;;;;;;18.48;3.30;;;2.40;99.90;;;;;;5072398;28;20036;-54
2024/01/27 00:47:51;;;;;;;22.40;3.50;;;2.40;99.90;;;;;;5072757;28;20055;-56
2024/01/27 00:50:17;;;;;;;15.18;3.38;;;2.20;99.90;;;;;;5071721;28;20028;-56
2024/01/27 00:52:43;;;;;;;18.45;3.92;;;2.60;99.90;;;;;;5072956;28;20040;-55
2024/01/27 00:55:09;;;;;;;21.45;4.60;;;2.60;99.90;;;;;;5071417;28;20037;-55
2024/01/27 00:57:38;;;;;;;16.00;3.60;;;2.40;99.90;;;;;;5072384;28;20040;-56
2024/01/27 01:00:08;;;;;;;16.45;3.63;;;2.00;99.90;;;;;;5072463;28;20557;-54
2024/01/27 01:02:34;;;;;;;21.92;4.22;;;2.00;99.90;;;;;;5072580;28;20437;-56
2024/01/27 01:05:01;;;;;;;24.02;5.63;;;2.20;99.90;;;;;;5071696;28;20102;-56
2024/01/27 01:07:27;;;;;;;19.17;3.75;;;2.60;99.90;;;;;;5072846;28;20475;-54
2024/01/27 01:09:52;;;;;;;18.95;3.00;;;1.90;99.90;;;;;;5072468;28;20032;-55
2024/01/27 01:12:18;;;;;;;17.45;3.60;;;2.10;99.90;;;;;;5072191;28;20042;-55
2024/01/27 01:14:44;;;;;;;14.40;3.45;;;2.30;99.90;;;;;;5072155;28;20029;-55
2024/01/27 01:17:10;;;;;;;20.50;4.32;;;2.50;99.90;;;;;;5072333;28;20439;-55
2024/01/27 01:19:38;;;;;;;14.15;3.63;;;2.30;99.90;;;;;;5072352;28;20086;-56
2024/01/27 01:22:05;;;;;;;20.10;3.67;;;2.00;99.90;;;;;;5072402;28;20056;-55
2024/01/27 01:24:31;;;;;;;33.47;4.15;;;2.50;99.90;;;;;;5069302;28;20372;-54
2024/01/27 01:26:57;;;;;;;22.38;4.03;;;1.80;99.90;;;;;;5072459;28;20064;-55
2024/01/27 01:29:22;;;;;;;18.73;3.88;;;2.00;99.90;;;;;;5071839;28;20090;-56
2024/01/27 01:31:48;;;;;;;14.63;4.00;;;1.90;99.90;;;;;;5072647;28;20499;-55
2024/01/27 01:34:14;;;;;;;21.25;3.65;;;2.50;99.90;;;;;;5070455;28;20063;-54
2024/01/27 01:36:40;;;;;;;22.60;3.63;;;1.90;99.90;;;;;;5071902;28;20051;-55
2024/01/27 01:39:06;;;;;;;22.90;3.25;;;2.20;99.90;;;;;;5070650;28;20055;-56
2024/01/27 01:41:32;;;;;;;19.92;3.05;;;2.10;99.90;;;;;;5071289;28;20060;-55
2024/01/27 01:43:59;;;;;;;16.45;3.15;;;1.70;99.90;;;;;;5071671;28;20067;-54
2024/01/27 01:46:25;;;;;;;15.18;3.40;;;1.80;99.90;;;;;;5071409;28;20040;-55
2024/01/27 01:48:50;;;;;;;16.85;2.95;;;2.10;99.90;;;;;;5071146;28;20041;-55
2024/01/27 01:51:16;;;;;;;18.48;3.42;;;1.80;99.90;;;;;;5072103;28;20036;-53
2024/01/27 01:53:47;;;;;;;16.15;3.33;;;1.60;99.90;;;;;;5070255;28;20161;-56
2024/01/27 01:56:15;;;;;;;20.90;3.13;;;1.60;99.90;;;;;;5071818;28;20040;-55
2024/01/27 01:58:40;;;;;;;11.65;3.35;;;2.30;99.90;;;;;;5071670;28;20480;-56
2024/01/27 02:01:06;;;;;;;18.00;3.92;;;2.10;99.90;;;;;;5072032;28;20113;-55
2024/01/27 02:03:32;;;;;;;17.70;3.05;;;1.70;99.90;;;;;;5071343;28;20032;-55
2024/01/27 02:05:58;;;;;;;20.88;3.42;;;2.30;99.90;;;;;;5069871;28;20072;-54
2024/01/27 02:08:24;;;;;;;16.52;3.72;;;1.60;99.90;;;;;;5070389;28;20070;-55
2024/01/27 02:10:49;;;;;;;13.55;3.35;;;1.90;99.90;;;;;;5067525;28;20047;-54
2024/01/27 02:13:20;;;;;;;17.02;3.15;;;2.30;99.90;;;;;;5070553;28;20392;-56
2024/01/27 02:15:46;;;;;;;16.80;3.22;;;1.60;99.90;;;;;;5071228;28;20117;-55
2024/01/27 02:18:13;;;;;;;18.13;4.03;;;1.70;99.90;;;;;;5070150;28;20506;-56
2024/01/27 02:20:38;;;;;;;18.48;3.67;;;1.50;99.90;;;;;;5071425;28;20392;-54
2024/01/27 02:23:05;;;;;;;15.65;3.53;;;2.00;99.90;;;;;;5070278;28;20049;-56
2024/01/27 02:25:31;;;;;;;12.27;3.75;;;1.50;99.90;;;;;;5070724;28;20048;-56
2024/01/27 02:27:57;;;;;;;20.63;3.70;;;1.80;99.90;;;;;;5070253;28;20117;-56
2024/01/27 02:30:23;;;;;;;18.17;3.95;;;1.40;99.90;;;;;;5069506;28;20040;-54
2024/01/27 02:32:48;;;;;;;23.00;3.80;;;2.10;99.90;;;;;;5070904;28;20491;-56
2024/01/27 02:35:14;;;;;;;18.13;4.35;;;1.60;99.90;;;;;;5070998;28;20124;-55
2024/01/27 02:37:41;;;;;;;25.02;4.03;;;2.20;99.90;;;;;;5069826;28;20032;-55
2024/01/27 02:40:09;;;;;;;16.42;3.55;;;1.60;99.90;;;;;;5070445;28;20457;-54
2024/01/27 02:42:35;;;;;;;26.85;3.65;;;2.10;99.90;;;;;;5069634;28;20040;-53
2024/01/27 02:45:02;;;;;;;18.83;3.63;;;1.60;99.90;;;;;;5070497;28;20162;-55
2024/01/27 02:47:27;;;;;;;18.88;3.47;;;2.00;99.90;;;;;;5069537;28;20041;-55
2024/01/27 02:49:53;;;;;;;19.02;3.72;;;1.90;99.90;;;;;;5069954;28;20028;-56
2024/01/27 02:52:19;;;;;;;27.92;3.92;;;2.20;99.90;;;;;;5069621;28;20404;-57
2024/01/27 02:54:45;;;;;;;16.88;3.60;;;2.00;99.90;;;;;;5068213;28;20369;-56
2024/01/27 02:57:11;;;;;;;22.35;3.40;;;2.20;99.90;;;;;;5070497;28;20064;-55
2024/01/27 02:59:38;;;;;;;24.25;4.22;;;1.30;99.90;;;;;;5069090;28;20145;-56
2024/01/27 03:02:05;;;;;;;19.27;3.40;;;2.20;99.90;;;;;;5070622;28;20492;-55
2024/01/27 03:04:30;;;;;;;22.40;3.70;;;2.00;99.90;;;;;;5070344;28;20531;-56
2024/01/27 03:06:56;;;;;;;17.02;3.47;;;2.10;99.90;;;;;;5070157;28;20044;-55
2024/01/27 03:09:22;;;;;;;18.60;3.75;;;2.10;99.90;;;;;;5069291;28;20036;-53
2024/01/27 03:11:47;;;;;;;25.42;4.40;;;1.20;99.90;;;;;;5070456;28;20488;-54
2024/01/27 03:14:13;;;;;;;23.42;5.20;;;1.20;99.90;;;;;;5069738;28;20423;-54
2024/01/27 03:16:39;;;;;;;22.85;3.67;;;2.00;99.90;;;;;;5069477;28;20040;-55
2024/01/27 03:19:04;;;;;;;16.80;3.20;;;1.30;99.90;;;;;;5069370;28;20068;-53
2024/01/27 03:21:30;;;;;;;26.73;4.43;;;1.80;99.90;;;;;;5068805;28;20051;-54
2024/01/27 03:23:56;;;;;;;25.50;4.50;;;1.20;99.90;;;;;;5069485;28;20059;-56
2024/01/27 03:26:21;;;;;;;21.95;4.63;;;1.90;99.90;;;;;;5068815;28;20404;-55
2024/01/27 03:28:47;;;;;;;18.40;3.65;;;2.20;99.90;;;;;;5070296;28;20033;-56
2024/01/27 03:31:13;;;;;;;15.85;3.28;;;2.00;99.90;;;;;;5070286;28;20040;-55
2024/01/27 03:33:38;;;;;;;14.80;3.17;;;1.80;99.90;;;;;;5070232;28;20035;-56
2024/01/27 03:36:12;;;;;;;19.95;3.83;;;1.80;99.90;;;;;;5068848;28;20033;-55
2024/01/27 03:38:40;;;;;;;18.17;3.67;;;1.10;99.90;;;;;;5069146;28;20036;-56
2024/01/27 03:41:06;;;;;;;18.73;3.83;;;1.20;99.90;;;;;;5068104;28;20040;-55
2024/01/27 03:43:33;;;;;;;19.92;4.13;;;2.60;99.90;;;;;;5070356;28;20090;-56
2024/01/27 03:45:59;;;;;;;20.63;4.35;;;1.50;99.90;;;;;;5070251;28;20040;-55
2024/01/27 03:48:24;;;;;;;11.35;3.55;;;1.10;99.90;;;;;;5069907;28;20067;-55
2024/01/27 03:50:50;;;;;;;21.70;3.60;;;2.20;99.90;;;;;;5067951;28;20040;-56
2024/01/27 03:53:16;;;;;;;27.33;4.20;;;2.10;99.90;;;;;;5069147;28;20093;-54
2024/01/27 03:55:41;;;;;;;22.10;3.92;;;1.40;99.90;;;;;;5070324;28;20391;-56
2024/01/27 03:58:07;;;;;;;20.88;4.25;;;1.10;99.90;;;;;;5069405;28;20048;-55
2024/01/27 04:00:33;;;;;;;19.20;5.13;;;1.20;99.90;;;;;;5069521;28;20067;-56
2024/01/27 04:02:59;;;;;;;17.80;3.90;;;1.10;99.90;;;;;;5070045;28;20468;-54
2024/01/27 04:05:25;;;;;;;22.75;3.80;;;1.80;99.90;;;;;;5069342;28;20048;-56
2024/01/27 04:07:51;;;;;;;22.17;4.10;;;1.90;99.90;;;;;;5069916;28;20045;-55
2024/01/27 04:10:18;;;;;;;18.73;4.30;;;2.00;99.90;;;;;;5068727;28;20563;-54
2024/01/27 04:12:44;;;;;;;29.90;5.57;;;1.10;99.90;;;;;;5070035;28;20029;-56
2024/01/27 04:15:10;;;;;;;19.85;4.35;;;2.20;99.90;;;;;;5067648;28;20060;-54
2024/01/27 04:17:37;;;;;;;19.55;4.05;;;1.50;99.90;;;;;;5069430;28;20036;-55
2024/01/27 04:20:04;;;;;;;16.70;3.97;;;1.70;99.90;;;;;;5069503;28;20387;-56
2024/01/27 04:22:30;;;;;;;17.45;3.90;;;1.70;99.90;;;;;;5069629;28;20061;-54
2024/01/27 04:24:56;;;;;;;25.30;3.75;;;1.80;99.90;;;;;;5068218;28;20040;-55
2024/01/27 04:27:22;;;;;;;24.50;4.60;;;2.00;99.90;;;;;;5069820;28;20043;-56
2024/01/27 04:29:48;;;;;;;18.45;4.18;;;1.50;99.90;;;;;;5068606;28;21241;-55
2024/01/27 04:32:13;;;;;;;17.65;4.32;;;1.30;99.90;;;;;;5068814;28;20134;-56
2024/01/27 04:34:39;;;;;;;22.42;4.25;;;1.80;99.90;;;;;;5072026;28;20401;-56
2024/01/27 04:37:05;;;;;;;12.13;4.07;;;1.00;99.90;;;;;;5072059;28;20480;-57
2024/01/27 04:39:31;;;;;;;25.83;3.92;;;1.60;99.90;;;;;;5073283;28;20103;-55
2024/01/27 04:41:57;;;;;;;17.40;3.90;;;1.10;99.90;;;;;;5072700;28;20067;-56
2024/01/27 04:44:22;;;;;;;18.30;3.90;;;1.50;99.90;;;;;;5071535;28;20064;-57
2024/01/27 04:46:48;;;;;;;18.05;3.65;;;1.80;99.90;;;;;;5072011;28;20051;-56
2024/01/27 04:49:15;;;;;;;21.90;3.90;;;1.70;99.90;;;;;;5072672;28;20041;-56
2024/01/27 04:51:41;;;;;;;22.20;4.88;;;1.00;99.90;;;;;;5072245;28;20044;-57
2024/01/27 04:54:07;;;;;;;17.67;4.00;;;1.70;99.90;;;;;;5072318;28;20468;-57
2024/01/27 04:56:33;;;;;;;16.88;4.25;;;0.80;99.90;;;;;;5071722;28;20047;-56
2024/01/27 04:58:58;;;;;;;24.00;4.22;;;1.70;99.90;;;;;;5072870;28;20040;-55
2024/01/27 05:01:24;;;;;;;23.88;4.78;;;1.10;99.90;;;;;;5073131;28;20040;-57
2024/01/27 05:03:50;;;;;;;26.77;5.60;;;0.90;99.90;;;;;;5072787;28;20100;-57
2024/01/27 05:06:16;;;;;;;28.48;5.40;;;1.60;99.90;;;;;;5072902;28;20075;-56
2024/01/27 05:08:41;;;;;;;28.58;6.78;;;1.90;99.90;;;;;;5069674;28;20040;-55
2024/01/27 05:11:07;;;;;;;28.60;6.40;;;1.30;99.90;;;;;;5069270;28;20090;-56
2024/01/27 05:13:33;;;;;;;34.08;7.18;;;0.90;99.90;;;;;;5072619;28;20073;-56
2024/01/27 05:15:59;;;;;;;27.25;7.55;;;0.90;99.90;;;;;;5069550;28;20040;-57
2024/01/27 05:18:24;;;;;;;26.30;7.20;;;1.70;99.90;;;;;;5071777;28;20153;-57
2024/01/27 05:20:50;;;;;;;22.55;6.85;;;2.10;99.90;;;;;;5071469;28;20264;-56
2024/01/27 05:23:16;;;;;;;28.77;7.53;;;2.30;99.90;;;;;;5071353;28;20060;-57
2024/01/27 05:25:41;;;;;;;30.30;8.10;;;1.00;99.90;;;;;;5071839;28;20036;-55
2024/01/27 05:28:07;;;;;;;24.00;7.57;;;1.20;99.90;;;;;;5071895;28;20040;-56
2024/01/27 05:30:33;;;;;;;28.30;7.10;;;0.90;99.90;;;;;;5072225;28;20040;-56
2024/01/27 05:32:58;;;;;;;28.05;8.30;;;1.00;99.90;;;;;;5071503;28;20186;-57
2024/01/27 05:35:24;;;;;;;28.38;8.38;;;1.50;99.90;;;;;;5071912;28;20484;-56
2024/01/27 05:37:51;;;;;;;27.02;8.23;;;1.00;99.90;;;;;;5071993;28;20037;-56
2024/01/27 05:40:17;;;;;;;26.92;7.55;;;1.60;99.90;;;;;;5071483;28;20098;-56
2024/01/27 05:42:44;;;;;;;33.40;7.95;;;2.10;99.90;;;;;;5071213;28;20066;-56
2024/01/27 05:45:10;;;;;;;26.20;7.85;;;0.90;99.90;;;;;;5071044;28;20037;-57
2024/01/27 05:47:36;;;;;;;33.85;9.15;;;1.90;99.90;;;;;;5070405;28;20066;-57
2024/01/27 05:50:03;;;;;;;24.75;8.65;;;1.50;99.90;;;;;;5069818;28;20032;-57
2024/01/27 05:52:28;;;;;;;25.27;8.43;;;0.90;99.90;;;;;;5071542;28;20040;-56
2024/01/27 05:54:54;;;;;;;30.92;9.43;;;1.80;99.90;;;;;;5067876;28;20040;-54
2024/01/27 05:57:20;;;;;;;37.78;8.63;;;0.80;99.90;;;;;;5071169;28;20036;-57
2024/01/27 05:59:46;;;;;;;34.60;9.05;;;1.30;99.90;;;;;;5071840;28;20391;-55
2024/01/27 06:02:12;;;;;;;25.67;8.60;;;1.50;99.90;;;;;;5070846;28;20043;-56
2024/01/27 06:04:37;;;;;;;22.42;8.82;;;1.70;99.90;;;;;;5052973;28;20058;-55
2024/01/27 06:07:03;;;;;;;33.70;9.48;;;0.80;99.90;;;;;;5070291;28;20039;-57
2024/01/27 06:09:29;;;;;;;37.13;9.50;;;1.30;99.90;;;;;;5071009;28;20047;-56
2024/01/27 06:11:55;;;;;;;33.35;8.80;;;1.80;99.90;;;;;;5072204;28;20064;-54
2024/01/27 06:14:20;;;;;;;26.00;8.52;;;1.00;99.90;;;;;;5071488;28;20033;-57
2024/01/27 06:16:46;;;;;;;30.38;9.65;;;1.60;99.90;;;;;;5071591;28;20047;-55
2024/01/27 06:19:11;;;;;;;37.33;10.10;;;1.10;99.90;;;;;;5071016;28;20450;-55
2024/01/27 06:21:37;;;;;;;28.80;8.90;;;1.90;99.90;;;;;;5069730;28;20473;-55
2024/01/27 06:24:03;;;;;;;21.52;8.98;;;1.90;99.90;;;;;;5070477;28;21276;-57
2024/01/27 06:26:28;;;;;;;28.25;8.27;;;1.80;99.90;;;;;;5071186;28;20717;-57
2024/01/27 06:28:54;;;;;;;27.13;8.98;;;1.70;99.90;;;;;;5070283;28;20041;-56
2024/01/27 06:31:20;;;;;;;35.42;9.90;;;1.60;99.90;;;;;;5070904;28;20036;-57
2024/01/27 06:33:45;;;;;;;29.25;9.73;;;1.10;99.90;;;;;;5068881;28;20177;-56
2024/01/27 06:36:11;;;;;;;27.10;9.18;;;0.70;99.90;;;;;;5068632;28;20388;-56
2024/01/27 06:38:40;;;;;;;28.23;9.55;;;1.90;99.90;;;;;;5069824;28;20097;-56
2024/01/27 06:41:06;;;;;;;27.85;9.20;;;1.70;99.90;;;;;;5069198;28;20044;-56
2024/01/27 06:43:31;;;;;;;25.08;9.63;;;0.70;99.90;;;;;;5070796;28;20421;-57
2024/01/27 06:45:57;;;;;;;33.72;10.27;;;1.90;99.90;;;;;;5069378;28;20068;-57
2024/01/27 06:48:26;;;;;;;28.52;9.20;;;1.50;99.90;;;;;;5068751;28;20415;-57
2024/01/27 06:50:52;;;;;;;34.47;8.50;;;1.90;99.90;;;;;;5070165;28;20041;-54
2024/01/27 06:53:21;;;;;;;30.75;8.77;;;1.80;99.90;;;;;;5070742;28;20038;-57
2024/01/27 06:55:47;;;;;;;21.67;8.30;;;1.80;99.90;;;;;;5070317;28;20033;-57
2024/01/27 06:58:13;;;;;;;33.85;9.45;;;0.70;99.90;;;;;;5071569;28;20135;-54
2024/01/27 07:00:38;;;;;;;28.05;9.10;;;0.80;99.90;;;;;;5069347;28;20422;-54
2024/01/27 07:03:04;;;;;;;27.58;8.63;;;1.90;99.90;;;;;;5070894;28;20036;-54
2024/01/27 07:05:32;;;;;;;30.42;9.10;;;1.80;99.90;;;;;;5067641;28;20105;-56
2024/01/27 07:07:58;;;;;;;17.15;8.02;;;0.70;99.90;;;;;;5070274;28;20056;-56
2024/01/27 07:10:24;;;;;;;28.55;9.07;;;1.00;99.90;;;;;;5070101;28;20028;-56
2024/01/27 07:12:49;;;;;;;33.70;9.80;;;0.60;99.90;;;;;;5065637;28;20624;-56
2024/01/27 07:15:16;;;;;;;38.65;9.25;;;0.60;99.90;;;;;;5064911;28;20487;-57
2024/01/27 07:17:41;;;;;;;30.05;9.57;;;0.70;99.90;;;;;;5064199;28;20115;-56
2024/01/27 07:20:08;;;;;;;25.05;9.55;;;1.50;99.90;;;;;;5065024;28;20119;-56
2024/01/27 07:22:34;;;;;;;36.83;10.48;;;1.60;99.90;;;;;;5063726;28;20052;-57
2024/01/27 07:24:59;;;;;;;31.33;10.55;;;1.60;99.90;;;;;;5061805;28;22903;-57
2024/01/27 07:27:25;;;;;;;29.10;10.50;;;1.00;99.90;;;;;;5063069;28;20044;-57
2024/01/27 07:29:51;;;;;;;26.75;9.85;;;0.60;99.90;;;;;;5064174;28;20127;-56
2024/01/27 07:32:16;;;;;;;30.45;10.48;;;1.40;99.90;;;;;;5063525;28;20047;-56
2024/01/27 07:34:45;;;;;;;27.17;10.07;;;0.60;99.90;;;;;;5060533;28;20040;-55
2024/01/27 07:37:11;;;;;;;30.83;9.82;;;0.60;99.90;;;;;;5063865;28;20089;-57
2024/01/27 07:39:37;;;;;;;34.03;10.15;;;1.90;99.90;;;;;;5063470;28;20033;-57
2024/01/27 07:42:02;;;;;;;30.17;9.98;;;0.60;99.90;;;;;;5064583;28;20040;-56
2024/01/27 07:44:28;;;;;;;26.13;9.50;;;0.80;99.90;;;;;;5065074;28;20058;-57
2024/01/27 07:46:54;;;;;;;35.28;11.13;;;1.70;99.90;;;;;;5062874;28;20040;-57
2024/01/27 07:49:19;;;;;;;30.33;11.25;;;1.40;99.90;;;;;;5059380;28;20048;-56
2024/01/27 07:51:45;;;;;;;34.78;11.95;;;2.00;99.90;;;;;;5061473;28;20044;-57
2024/01/27 07:54:11;;;;;;;31.95;11.65;;;0.90;99.90;;;;;;5063248;28;20043;-57
2024/01/27 07:56:38;;;;;;;37.33;11.27;;;1.10;99.90;;;;;;5065131;28;20040;-57
2024/01/27 07:59:03;;;;;;;32.42;11.50;;;2.10;99.90;;;;;;5062883;28;20047;-57
2024/01/27 08:01:29;;;;;;;30.40;11.27;;;2.00;99.90;;;;;;5078971;28;20480;-57
2024/01/27 08:03:55;;;;;;;30.00;11.93;;;2.10;99.90;;;;;;5064040;28;20028;-56
2024/01/27 08:06:29;;;;;;;39.80;12.38;;;1.00;99.90;;;;;;5061893;28;20055;-56
2024/01/27 08:08:54;;;;;;;;;;;1.50;99.90;;;;;;5066307;28;20480;-56
2024/01/27 08:11:20;;;;;;;27.20;11.13;;;1.10;99.90;;;;;;5065441;28;19912;-56
2024/01/27 08:13:46;;;;;;;32.25;11.48;;;1.00;99.90;;;;;;5065841;28;20480;-55
2024/01/27 08:16:12;;;;;;;39.53;14.05;;;1.50;99.90;;;;;;5064114;28;20526;-57
2024/01/27 08:18:43;;;;;;;38.38;13.07;;;2.10;99.90;;;;;;5065779;28;20171;-56
2024/01/27 08:21:10;;;;;;;34.90;12.85;;;2.20;99.90;;;;;;5065898;28;20627;-56
2024/01/27 08:23:35;;;;;;;31.98;12.82;;;2.30;99.90;;;;;;5064781;28;20118;-56
2024/01/27 08:26:01;;;;;;;40.45;14.55;;;1.70;99.90;;;;;;5068660;28;20032;-57
2024/01/27 08:28:27;;;;;;;37.78;14.63;;;1.40;99.90;;;;;;5066908;28;20087;-57
2024/01/27 08:30:52;;;;;;;40.22;14.45;;;2.10;99.90;;;;;;5067065;28;20029;-56
2024/01/27 08:33:18;;;;;;;33.35;14.68;;;1.20;99.90;;;;;;5067216;28;20057;-56
2024/01/27 08:35:46;;;;;;;37.30;14.25;;;1.10;99.90;;;;;;5067522;28;20071;-56
2024/01/27 08:38:12;;;;;;;45.67;15.50;;;2.20;99.90;;;;;;5064956;28;20488;-56
2024/01/27 08:40:38;;;;;;;38.00;15.25;;;1.80;99.90;;;;;;5066745;28;20043;-56
2024/01/27 08:43:04;;;;;;;36.88;14.25;;;1.30;99.90;;;;;;5063979;28;20044;-56
2024/01/27 08:45:29;;;;;;;36.35;15.40;;;1.80;99.90;;;;;;5063172;28;20459;-57
2024/01/27 08:47:55;;;;;;;34.13;14.82;;;1.30;99.90;;;;;;5063205;28;20514;-56
2024/01/27 08:50:21;;;;;;;47.83;17.27;;;2.10;99.90;;;;;;5062699;28;20033;-57
2024/01/27 08:52:47;;;;;;;42.38;16.48;;;2.80;99.90;;;;;;5064955;28;20036;-57
2024/01/27 08:55:13;;;;;;;37.13;15.48;;;2.70;99.90;;;;;;5064904;28;20055;-57
2024/01/27 08:57:38;;;;;;;44.53;15.73;;;2.30;99.90;;;;;;5082564;28;20141;-56
2024/01/27 09:00:05;;;;;;;40.28;15.57;;;2.70;99.90;;;;;;5066960;28;20036;-56
2024/01/27 09:02:30;;;;;;;44.13;16.38;;;3.00;99.90;;;;;;5066528;28;20033;-55
2024/01/27 09:04:56;;;;;;;43.67;17.35;;;2.30;99.90;;;;;;5065986;28;20044;-56
2024/01/27 09:07:23;;;;;;;38.22;16.13;;;2.40;99.90;;;;;;5065129;28;20472;-57
2024/01/27 09:09:48;;;;;;;47.03;16.23;;;3.00;99.90;;;;;;5064729;28;20044;-55
2024/01/27 09:12:15;;;;;;;37.05;14.98;;;2.40;99.90;;;;;;5065395;28;20037;-55
2024/01/27 09:14:40;;;;;;;43.20;16.45;;;2.10;99.90;;;;;;5065403;28;20080;-57
2024/01/27 09:17:06;;;;;;;38.58;17.40;;;3.30;99.90;;;;;;5065543;28;20083;-56
2024/01/27 09:19:32;;;;;;;43.20;18.23;;;3.30;99.90;;;;;;5063654;28;20476;-57
2024/01/27 09:21:58;;;;;;;40.78;16.45;;;2.40;99.90;;;;;;5064358;28;20037;-57
2024/01/27 09:24:23;;;;;;;38.47;16.67;;;3.30;99.90;;;;;;5065071;28;20491;-57
2024/01/27 09:26:49;;;;;;;49.10;17.15;;;2.50;99.90;;;;;;5065588;28;20036;-56
2024/01/27 09:29:15;;;;;;;39.88;18.13;;;2.60;99.90;;;;;;5063353;28;20078;-57
2024/01/27 09:31:40;;;;;;;42.47;18.23;;;3.50;99.90;;;;;;5065074;28;20396;-55
2024/01/27 09:34:06;;;;;;;37.42;17.58;;;3.70;99.90;;;;;;5063931;28;20025;-55
2024/01/27 09:36:32;;;;;;;43.10;16.60;;;3.70;99.90;;;;;;5064097;28;20245;-58
2024/01/27 09:38:59;;;;;;;42.33;17.60;;;3.70;99.90;;;;;;5060378;28;20044;-56
2024/01/27 09:41:31;;;;;;;35.55;15.45;;;4.00;99.90;;;;;;5063492;28;20336;-57
2024/01/27 09:44:02;;;;;;;40.30;17.25;;;3.90;99.90;;;;;;5065186;28;20032;-57
2024/01/27 09:46:29;;;;;;;43.03;16.90;;;3.90;99.90;;;;;;5062860;28;20134;-55
2024/01/27 09:48:56;;;;;;;40.10;16.48;;;4.30;99.90;;;;;;5062807;28;20387;-56
2024/01/27 09:51:22;;;;;;;36.35;15.15;;;3.40;99.90;;;;;;5062489;28;20044;-57
2024/01/27 09:53:51;;;;;;;37.80;17.02;;;4.10;99.90;;;;;;5065249;28;20032;-57
2024/01/27 09:56:20;;;;;;;36.67;16.42;;;4.20;99.90;;;;;;5063819;28;20039;-56
2024/01/27 09:58:49;;;;;;;34.03;14.02;;;4.20;99.90;;;;;;5064082;28;20101;-57
2024/01/27 10:01:19;;;;;;;36.80;14.77;;;4.70;99.90;;;;;;5063613;28;20047;-56
2024/01/27 10:03:46;;;;;;;30.52;13.57;;;4.70;99.90;;;;;;5066244;28;20119;-56
2024/01/27 10:06:14;;;;;;;31.05;14.82;;;5.10;99.90;;;;;;5061334;28;20040;-57
2024/01/27 10:08:40;;;;;;;35.30;14.57;;;4.90;99.90;;;;;;5065162;28;20563;-56
2024/01/27 10:11:09;;;;;;;39.47;14.65;;;4.80;99.90;;;;;;5062499;28;20028;-56
2024/01/27 10:13:36;;;;;;;33.78;13.25;;;5.00;99.90;;;;;;5060044;28;20021;-58
2024/01/27 10:16:06;;;;;;;34.20;13.90;;;5.10;99.90;;;;;;5064879;28;20583;-56
2024/01/27 10:18:33;;;;;;;33.63;13.50;;;5.10;99.90;;;;;;5060754;28;20060;-56
2024/01/27 10:20:59;;;;;;;35.58;13.63;;;4.80;99.90;;;;;;5064708;28;20119;-57
2024/01/27 10:23:25;;;;;;;34.25;14.07;;;5.10;99.90;;;;;;5063032;28;20060;-56
2024/01/27 10:25:51;;;;;;;35.40;12.70;;;4.60;99.90;;;;;;5064252;28;20045;-55
2024/01/27 10:28:17;;;;;;;23.38;12.10;;;5.30;99.90;;;;;;5065153;28;20086;-55
2024/01/27 10:30:48;;;;;;;32.20;11.55;;;5.10;99.90;;;;;;5065534;28;20028;-57
2024/01/27 10:33:14;;;;;;;24.08;11.30;;;6.00;99.90;;;;;;5063318;28;20040;-56
2024/01/27 10:35:41;;;;;;;25.60;10.68;;;6.10;99.90;;;;;;5063990;28;20484;-56
2024/01/27 10:38:07;;;;;;;27.60;10.93;;;6.60;99.90;;;;;;5065216;28;20047;-57
2024/01/27 10:40:33;;;;;;;27.48;10.98;;;6.90;99.90;;;;;;5062095;28;20507;-55
2024/01/27 10:43:04;;;;;;;21.30;8.85;;;7.00;99.90;;;;;;5062930;28;20054;-57
2024/01/27 10:45:40;;;;;;;20.35;9.40;;;7.00;99.90;;;;;;5054501;28;20059;-55
2024/01/27 10:48:07;;;;;;;20.27;9.43;;;7.30;99.90;;;;;;5062059;28;20055;-56
2024/01/27 10:50:38;;;;;;;23.92;8.80;;;7.30;99.90;;;;;;5061143;28;20041;-57
2024/01/27 10:53:08;;;;;;;22.05;8.73;;;7.40;99.90;;;;;;5064735;28;20033;-55
2024/01/27 10:55:35;;;;;;;20.67;9.02;;;7.40;99.90;;;;;;5063650;28;20044;-57
2024/01/27 10:58:02;;;;;;;20.25;8.45;;;7.70;99.90;;;;;;5062812;28;20557;-57
2024/01/27 11:00:30;;;;;;;19.90;8.50;;;7.60;99.90;;;;;;5059024;28;20053;-56
2024/01/27 11:03:02;;;;;;;17.25;8.63;;;7.90;99.90;;;;;;5048800;28;20082;-58
2024/01/27 11:05:31;;;;;;;22.83;9.95;;;7.90;99.90;;;;;;5059156;28;20067;-57
2024/01/27 11:07:59;;;;;;;23.33;8.52;;;8.10;99.90;;;;;;5062968;28;20051;-57
2024/01/27 11:10:26;;;;;;;20.33;8.27;;;8.00;99.90;;;;;;5062406;28;20031;-57
2024/01/27 11:12:55;;;;;;;22.50;8.23;;;7.90;99.90;;;;;;5062083;28;20033;-57
2024/01/27 11:15:21;;;;;;;28.48;9.05;;;7.60;99.90;;;;;;5062764;28;20035;-57
2024/01/27 11:17:47;;;;;;;25.25;8.88;;;7.50;99.90;;;;;;5062207;28;20041;-57
2024/01/27 11:20:15;;;;;;;25.23;8.98;;;7.50;99.90;;;;;;5062933;28;20074;-56
2024/01/27 11:22:43;;;;;;;29.95;9.75;;;7.40;99.90;;;;;;5061986;28;20409;-56
2024/01/27 11:25:12;;;;;;;25.17;8.30;;;7.50;99.90;;;;;;5062769;28;20074;-57
2024/01/27 11:27:39;;;;;;;23.77;8.52;;;7.60;99.90;;;;;;5064522;28;20472;-56
2024/01/27 11:30:11;;;;;;;22.60;8.68;;;7.90;99.90;;;;;;5062012;28;20025;-57
2024/01/27 11:32:36;;;;;;;24.00;8.90;;;8.10;99.90;;;;;;5061943;28;20047;-56
2024/01/27 11:35:02;;;;;;;18.95;8.18;;;8.30;99.90;;;;;;5061947;28;20541;-57
2024/01/27 11:37:31;;;;;;;19.65;8.43;;;8.40;99.90;;;;;;5058704;28;20040;-57
2024/01/27 11:40:07;;;;;;;22.42;8.82;;;8.70;99.90;;;;;;5056536;28;20040;-57
2024/01/27 11:42:33;;;;;;;22.80;8.27;;;9.00;99.90;;;;;;5058571;28;20036;-57
2024/01/27 11:44:58;;;;;;;18.90;7.20;;;9.10;99.90;;;;;;5063941;28;20052;-56
2024/01/27 11:47:26;;;;;;;18.38;7.38;;;9.30;99.90;;;;;;5063132;28;20045;-56
2024/01/27 11:49:53;;;;;;;24.02;8.07;;;9.50;99.90;;;;;;5060989;28;20041;-57
2024/01/27 11:52:19;;;;;;;21.20;6.60;;;9.50;99.90;;;;;;5060452;28;20500;-55
2024/01/27 11:54:45;;;;;;;22.10;7.35;;;9.40;99.90;;;;;;5063372;28;20389;-57
2024/01/27 11:57:10;;;;;;;21.88;6.80;;;9.50;99.90;;;;;;5061134;28;20051;-58
2024/01/27 11:59:36;;;;;;;16.92;6.53;;;9.50;99.90;;;;;;5060478;28;20503;-57
2024/01/27 12:02:03;;;;;;;19.02;6.00;;;9.60;99.90;;;;;;5060416;28;20044;-56
2024/01/27 12:04:29;;;;;;;17.42;5.78;;;9.60;99.90;;;;;;5060265;28;20122;-56
2024/01/27 12:06:54;;;;;;;21.27;6.55;;;9.60;99.90;;;;;;5060468;28;20715;-57
2024/01/27 12:09:20;;;;;;;23.00;5.93;;;9.70;99.90;;;;;;5061571;28;20048;-58
2024/01/27 12:11:46;;;;;;;19.73;6.13;;;9.60;99.90;;;;;;5062285;28;20049;-57
2024/01/27 12:14:12;;;;;;;14.13;5.40;;;9.60;99.90;;;;;;5063156;28;20044;-57
2024/01/27 12:16:38;;;;;;;21.73;5.45;;;9.60;99.90;;;;;;5062093;28;20057;-58
2024/01/27 12:19:04;;;;;;;20.48;5.60;;;9.60;99.90;;;;;;5063301;28;20480;-57
2024/01/27 12:21:30;;;;;;;18.30;5.90;;;9.70;99.90;;;;;;5064351;28;20032;-57
2024/01/27 12:23:57;;;;;;;17.88;5.20;;;9.60;99.90;;;;;;5063109;28;20060;-57
2024/01/27 12:26:30;;;;;;;17.38;5.68;;;9.70;99.90;;;;;;5060162;28;20395;-57
2024/01/27 12:28:57;;;;;;;20.20;5.47;;;9.70;99.90;;;;;;5069560;28;20040;-56
2024/01/27 12:31:24;;;;;;;19.15;5.35;;;9.80;99.90;;;;;;5061962;28;20044;-55
2024/01/27 12:33:51;;;;;;;20.90;5.68;;;9.80;99.90;;;;;;5070646;28;20154;-57
2024/01/27 12:36:20;;;;;;;19.23;5.45;;;9.80;99.90;;;;;;5072071;28;20115;-55
2024/01/27 12:38:58;;;;;;;18.73;5.10;;;9.80;99.90;;;;;;5072685;28;20133;-55
2024/01/27 12:41:25;;;;;;;20.40;5.20;;;9.80;99.90;;;;;;5072408;28;20068;-56